PWSweather.com
Personal Weather Stations
Station Observations
SHAHALMS1
Eftra, Falkenberg, HA

EftraFalkenberg, HA

Lat: 56.85, Lon: 12.65

Elevation: 140

Station Type:

http://hem.passagen.se/risarp101

High Low Average
Temperature 39.9°F4.4°C 31.6°F-0.2°C 34.8°F1.6°C
Dew Point 27.7°F-2.4°C 22.8°F-5.1°C 25.3°F-3.7°C
Winds 9.2 mph 14.8 kmh 0.8 mph 1.3 kmh 6.0 mph NE9.7 kmh NE
Wind Gusts 19.3 mph31.1 kmh 5.0 mph8.0 kmh 10.0 mph16.1 kmh
Humidity 77% 58% 68%
Pressure 29.98 in1015.2 mb 29.65 in1004.1 mb -
Precipitation 0.00 in0.0 mm - -
Hour Temp Dew Point Humidity Winds Wind Gusts Pressure Precip Precip Rate Daily Precip Total
12:00 AM 34.2°F1.2°C 27.7°F-2.4°C 77% 3.3 mph N5.3 kmh N 9.3 mph15.0 kmh 29.68 in1005.1 mb 0.00 in0.0 mm 0.00 in0.0 mm 0.00 in0.0 mm
12:15 AM 34.2°F1.2°C 27.7°F-2.4°C 77% 2.2 mph NW3.5 kmh NW 6.4 mph10.3 kmh 29.65 in1004.1 mb 0.00 in0.0 mm 0.00 in0.0 mm 0.00 in0.0 mm
12:30 AM 34.2°F1.2°C 27.7°F-2.4°C 77% 3.7 mph NNW6.0 kmh NNW 5.4 mph8.7 kmh 29.68 in1005.1 mb 0.00 in0.0 mm 0.00 in0.0 mm 0.00 in0.0 mm
12:45 AM 34.2°F1.2°C 27.7°F-2.4°C 77% 7.1 mph N11.4 kmh N 9.7 mph15.6 kmh 29.71 in1006.1 mb 0.00 in0.0 mm 0.00 in0.0 mm 0.00 in0.0 mm
01:00 AM 34.3°F1.3°C 27.2°F-2.7°C 75% 6.4 mph N10.3 kmh N 7.9 mph12.7 kmh 29.68 in1005.1 mb 0.00 in0.0 mm 0.00 in0.0 mm 0.00 in0.0 mm
01:15 AM 34.3°F1.3°C 26.9°F-2.8°C 74% 6.4 mph N10.3 kmh N 7.9 mph12.7 kmh 29.71 in1006.1 mb 0.00 in0.0 mm 0.00 in0.0 mm 0.00 in0.0 mm
01:30 AM 34.3°F1.3°C 26.9°F-2.8°C 74% 6.4 mph N10.3 kmh N 7.9 mph12.7 kmh 29.71 in1006.1 mb 0.00 in0.0 mm 0.00 in0.0 mm 0.00 in0.0 mm
01:45 AM 34.3°F1.3°C 26.6°F-3.0°C 73% 6.4 mph N10.3 kmh N 7.9 mph12.7 kmh 29.71 in1006.1 mb 0.00 in0.0 mm 0.00 in0.0 mm 0.00 in0.0 mm
02:00 AM 34.3°F1.3°C 26.6°F-3.0°C 73% 5.3 mph NNE8.5 kmh NNE 6.8 mph10.9 kmh 29.74 in1007.1 mb 0.00 in0.0 mm 0.00 in0.0 mm 0.00 in0.0 mm
02:15 AM 34.3°F1.3°C 26.6°F-3.0°C 73% 4.6 mph NNE7.4 kmh NNE 7.2 mph11.6 kmh 29.74 in1007.1 mb 0.00 in0.0 mm 0.00 in0.0 mm 0.00 in0.0 mm
02:30 AM 34.5°F1.4°C 26.8°F-2.9°C 73% 5.2 mph NNE8.4 kmh NNE 7.2 mph11.6 kmh 29.74 in1007.1 mb 0.00 in0.0 mm 0.00 in0.0 mm 0.00 in0.0 mm
02:45 AM 34.5°F1.4°C 26.8°F-2.9°C 73% 4.7 mph NNE7.6 kmh NNE 6.8 mph10.9 kmh 29.74 in1007.1 mb 0.00 in0.0 mm 0.00 in0.0 mm 0.00 in0.0 mm
03:00 AM 34.5°F1.4°C 27.1°F-2.7°C 74% 5.5 mph N8.9 kmh N 10.0 mph16.1 kmh 29.71 in1006.1 mb 0.00 in0.0 mm 0.00 in0.0 mm 0.00 in0.0 mm
03:15 AM 34.5°F1.4°C 27.1°F-2.7°C 74% 4.1 mph NNE6.6 kmh NNE 5.0 mph8.0 kmh 29.71 in1006.1 mb 0.00 in0.0 mm 0.00 in0.0 mm 0.00 in0.0 mm
03:30 AM 34.3°F1.3°C 26.9°F-2.8°C 74% 5.5 mph N8.9 kmh N 6.8 mph10.9 kmh 29.74 in1007.1 mb 0.00 in0.0 mm 0.00 in0.0 mm 0.00 in0.0 mm
03:45 AM 34.2°F1.2°C 26.7°F-2.9°C 74% 5.5 mph N8.9 kmh N 6.8 mph10.9 kmh 29.74 in1007.1 mb 0.00 in0.0 mm 0.00 in0.0 mm 0.00 in0.0 mm
04:00 AM 34.0°F1.1°C 26.6°F-3.0°C 74% 4.9 mph N7.9 kmh N 6.1 mph9.8 kmh 29.74 in1007.1 mb 0.00 in0.0 mm 0.00 in0.0 mm 0.00 in0.0 mm
04:15 AM 33.8°F1.0°C 26.4°F-3.1°C 74% 4.7 mph N7.6 kmh N 7.9 mph12.7 kmh 29.77 in1008.1 mb 0.00 in0.0 mm 0.00 in0.0 mm 0.00 in0.0 mm
04:30 AM 34.0°F1.1°C 26.6°F-3.0°C 74% 4.7 mph NNE7.6 kmh NNE 5.7 mph9.2 kmh 29.77 in1008.1 mb 0.00 in0.0 mm 0.00 in0.0 mm 0.00 in0.0 mm
04:45 AM 34.0°F1.1°C 26.6°F-3.0°C 74% 4.7 mph NNE7.6 kmh NNE 5.7 mph9.2 kmh 29.80 in1009.1 mb 0.00 in0.0 mm 0.00 in0.0 mm 0.00 in0.0 mm
05:00 AM 34.2°F1.2°C 26.7°F-2.9°C 74% 4.7 mph NNE7.6 kmh NNE 5.7 mph9.2 kmh 29.80 in1009.1 mb 0.00 in0.0 mm 0.00 in0.0 mm 0.00 in0.0 mm
05:15 AM 34.2°F1.2°C 26.4°F-3.1°C 73% 7.4 mph N11.9 kmh N 9.7 mph15.6 kmh 29.80 in1009.1 mb 0.00 in0.0 mm 0.00 in0.0 mm 0.00 in0.0 mm
05:30 AM 34.2°F1.2°C 26.4°F-3.1°C 73% 6.6 mph N10.6 kmh N 9.3 mph15.0 kmh 29.80 in1009.1 mb 0.00 in0.0 mm 0.00 in0.0 mm 0.00 in0.0 mm
05:45 AM 34.3°F1.3°C 26.6°F-3.0°C 73% 7.1 mph N11.4 kmh N 10.0 mph16.1 kmh 29.80 in1009.1 mb 0.00 in0.0 mm 0.00 in0.0 mm 0.00 in0.0 mm
06:00 AM 34.3°F1.3°C 26.6°F-3.0°C 73% 7.4 mph N11.9 kmh N 10.4 mph16.7 kmh 29.77 in1008.1 mb 0.00 in0.0 mm 0.00 in0.0 mm 0.00 in0.0 mm
06:15 AM 34.2°F1.2°C 26.4°F-3.1°C 73% 7.3 mph N11.7 kmh N 10.4 mph16.7 kmh 29.80 in1009.1 mb 0.00 in0.0 mm 0.00 in0.0 mm 0.00 in0.0 mm
06:30 AM 34.2°F1.2°C 26.4°F-3.1°C 73% 4.9 mph N7.9 kmh N 6.8 mph10.9 kmh 29.80 in1009.1 mb 0.00 in0.0 mm 0.00 in0.0 mm 0.00 in0.0 mm
06:45 AM 34.0°F1.1°C 26.2°F-3.2°C 73% 5.5 mph N8.9 kmh N 6.8 mph10.9 kmh 29.83 in1010.2 mb 0.00 in0.0 mm 0.00 in0.0 mm 0.00 in0.0 mm
07:00 AM 33.8°F1.0°C 26.1°F-3.3°C 73% 5.5 mph N8.9 kmh N 6.8 mph10.9 kmh 29.83 in1010.2 mb 0.00 in0.0 mm 0.00 in0.0 mm 0.00 in0.0 mm
07:15 AM 33.3°F0.7°C 25.5°F-3.6°C 73% 5.5 mph N8.9 kmh N 6.8 mph10.9 kmh 29.83 in1010.2 mb 0.00 in0.0 mm 0.00 in0.0 mm 0.00 in0.0 mm
07:30 AM 33.1°F0.6°C 25.4°F-3.7°C 73% 5.5 mph N8.9 kmh N 6.8 mph10.9 kmh 29.83 in1010.2 mb 0.00 in0.0 mm 0.00 in0.0 mm 0.00 in0.0 mm
07:45 AM 33.1°F0.6°C 25.7°F-3.5°C 74% 5.5 mph N8.9 kmh N 6.8 mph10.9 kmh 29.86 in1011.2 mb 0.00 in0.0 mm 0.00 in0.0 mm 0.00 in0.0 mm
08:00 AM 33.1°F0.6°C 25.7°F-3.5°C 74% 5.5 mph N8.9 kmh N 6.8 mph10.9 kmh 29.86 in1011.2 mb 0.00 in0.0 mm 0.00 in0.0 mm 0.00 in0.0 mm
08:15 AM 33.6°F0.9°C 26.2°F-3.2°C 74% 6.0 mph NE9.7 kmh NE 9.3 mph15.0 kmh 29.86 in1011.2 mb 0.00 in0.0 mm 0.00 in0.0 mm 0.00 in0.0 mm
08:30 AM 34.7°F1.5°C 27.6°F-2.4°C 75% 4.8 mph NNE7.7 kmh NNE 7.9 mph12.7 kmh 29.86 in1011.2 mb 0.00 in0.0 mm 0.00 in0.0 mm 0.00 in0.0 mm
08:45 AM 35.2°F1.8°C 27.1°F-2.7°C 72% 5.9 mph NNE9.5 kmh NNE 13.6 mph21.9 kmh 29.86 in1011.2 mb 0.00 in0.0 mm 0.00 in0.0 mm 0.00 in0.0 mm
09:00 AM 35.6°F2.0°C 27.1°F-2.7°C 71% 3.2 mph N5.1 kmh N 6.8 mph10.9 kmh 29.86 in1011.2 mb 0.00 in0.0 mm 0.00 in0.0 mm 0.00 in0.0 mm
09:15 AM 36.0°F2.2°C 27.1°F-2.7°C 70% 5.5 mph N8.9 kmh N 9.3 mph15.0 kmh 29.89 in1012.2 mb 0.00 in0.0 mm 0.00 in0.0 mm 0.00 in0.0 mm
09:30 AM 36.3°F2.4°C 27.1°F-2.7°C 69% 5.5 mph NNE8.9 kmh NNE 12.2 mph19.6 kmh 29.89 in1012.2 mb 0.00 in0.0 mm 0.00 in0.0 mm 0.00 in0.0 mm
09:45 AM 36.5°F2.5°C 26.9°F-2.8°C 68% 6.1 mph NNE9.8 kmh NNE 12.5 mph20.1 kmh 29.89 in1012.2 mb 0.00 in0.0 mm 0.00 in0.0 mm 0.00 in0.0 mm
10:00 AM 36.7°F2.6°C 26.7°F-2.9°C 67% 5.6 mph NNE9.0 kmh NNE 10.0 mph16.1 kmh 29.89 in1012.2 mb 0.00 in0.0 mm 0.00 in0.0 mm 0.00 in0.0 mm
10:15 AM 36.9°F2.7°C 26.6°F-3.0°C 66% 9.2 mph N14.8 kmh N 16.8 mph27.0 kmh 29.89 in1012.2 mb 0.00 in0.0 mm 0.00 in0.0 mm 0.00 in0.0 mm
10:30 AM 36.7°F2.6°C 26.0°F-3.3°C 65% 7.3 mph NNE11.7 kmh NNE 15.0 mph24.1 kmh 29.89 in1012.2 mb 0.00 in0.0 mm 0.00 in0.0 mm 0.00 in0.0 mm
10:45 AM 37.0°F2.8°C 26.4°F-3.1°C 65% 8.9 mph N14.3 kmh N 19.3 mph31.1 kmh 29.92 in1013.2 mb 0.00 in0.0 mm 0.00 in0.0 mm 0.00 in0.0 mm
11:00 AM 37.6°F3.1°C 26.5°F-3.1°C 64% 9.2 mph N14.8 kmh N 16.8 mph27.0 kmh 29.92 in1013.2 mb 0.00 in0.0 mm 0.00 in0.0 mm 0.00 in0.0 mm
11:15 AM 38.3°F3.5°C 26.8°F-2.9°C 63% 7.0 mph N11.3 kmh N 15.7 mph25.3 kmh 29.92 in1013.2 mb 0.00 in0.0 mm 0.00 in0.0 mm 0.00 in0.0 mm
11:30 AM 39.0°F3.9°C 27.5°F-2.5°C 63% 7.2 mph NE11.6 kmh NE 17.5 mph28.2 kmh 29.92 in1013.2 mb 0.00 in0.0 mm 0.00 in0.0 mm 0.00 in0.0 mm
11:45 AM 38.7°F3.7°C 26.4°F-3.1°C 61% 5.8 mph NE9.3 kmh NE 11.8 mph19.0 kmh 29.92 in1013.2 mb 0.00 in0.0 mm 0.00 in0.0 mm 0.00 in0.0 mm
12:00 PM 39.4°F4.1°C 26.6°F-3.0°C 60% 6.6 mph NE10.6 kmh NE 11.8 mph19.0 kmh 29.92 in1013.2 mb 0.00 in0.0 mm 0.00 in0.0 mm 0.00 in0.0 mm
12:15 PM 39.4°F4.1°C 26.6°F-3.0°C 60% 7.3 mph E11.7 kmh E 16.5 mph26.6 kmh 29.92 in1013.2 mb 0.00 in0.0 mm 0.00 in0.0 mm 0.00 in0.0 mm
12:30 PM 39.9°F4.4°C 27.1°F-2.7°C 60% 7.4 mph E11.9 kmh E 16.8 mph27.0 kmh 29.92 in1013.2 mb 0.00 in0.0 mm 0.00 in0.0 mm 0.00 in0.0 mm
12:45 PM 39.4°F4.1°C 26.2°F-3.2°C 59% 6.6 mph NE10.6 kmh NE 13.6 mph21.9 kmh 29.92 in1013.2 mb 0.00 in0.0 mm 0.00 in0.0 mm 0.00 in0.0 mm
01:00 PM 39.0°F3.9°C 25.5°F-3.6°C 58% 5.8 mph NE9.3 kmh NE 12.5 mph20.1 kmh 29.92 in1013.2 mb 0.00 in0.0 mm 0.00 in0.0 mm 0.00 in0.0 mm
01:15 PM 39.0°F3.9°C 25.5°F-3.6°C 58% 6.3 mph NE10.1 kmh NE 17.5 mph28.2 kmh 29.92 in1013.2 mb 0.00 in0.0 mm 0.00 in0.0 mm 0.00 in0.0 mm
01:30 PM 38.1°F3.4°C 24.6°F-4.1°C 58% 6.3 mph NE10.1 kmh NE 12.5 mph20.1 kmh 29.92 in1013.2 mb 0.00 in0.0 mm 0.00 in0.0 mm 0.00 in0.0 mm
01:45 PM 37.9°F3.3°C 24.5°F-4.2°C 58% 7.0 mph NE11.3 kmh NE 15.4 mph24.8 kmh 29.92 in1013.2 mb 0.00 in0.0 mm 0.00 in0.0 mm 0.00 in0.0 mm
02:00 PM 38.5°F3.6°C 25.8°F-3.4°C 60% 6.3 mph E10.1 kmh E 13.6 mph21.9 kmh 29.89 in1012.2 mb 0.00 in0.0 mm 0.00 in0.0 mm 0.00 in0.0 mm
02:15 PM 38.8°F3.8°C 26.1°F-3.3°C 60% 5.8 mph ENE9.3 kmh ENE 12.5 mph20.1 kmh 29.92 in1013.2 mb 0.00 in0.0 mm 0.00 in0.0 mm 0.00 in0.0 mm
02:30 PM 37.9°F3.3°C 24.5°F-4.2°C 58% 7.5 mph NNE12.1 kmh NNE 11.8 mph19.0 kmh 29.92 in1013.2 mb 0.00 in0.0 mm 0.00 in0.0 mm 0.00 in0.0 mm
02:45 PM 37.9°F3.3°C 24.9°F-3.9°C 59% 5.9 mph ENE9.5 kmh ENE 12.5 mph20.1 kmh 29.89 in1012.2 mb 0.00 in0.0 mm 0.00 in0.0 mm 0.00 in0.0 mm
03:00 PM 37.8°F3.2°C 24.7°F-4.1°C 59% 6.8 mph ENE10.9 kmh ENE 13.6 mph21.9 kmh 29.89 in1012.2 mb 0.00 in0.0 mm 0.00 in0.0 mm 0.00 in0.0 mm
03:15 PM 37.6°F3.1°C 24.5°F-4.2°C 59% 4.7 mph ENE7.6 kmh ENE 12.2 mph19.6 kmh 29.92 in1013.2 mb 0.00 in0.0 mm 0.00 in0.0 mm 0.00 in0.0 mm
03:30 PM 37.4°F3.0°C 24.0°F-4.4°C 58% 7.4 mph NE11.9 kmh NE 12.9 mph20.8 kmh 29.92 in1013.2 mb 0.00 in0.0 mm 0.00 in0.0 mm 0.00 in0.0 mm
03:45 PM 36.9°F2.7°C 23.9°F-4.5°C 59% 4.4 mph NE7.1 kmh NE 10.7 mph17.2 kmh 29.92 in1013.2 mb 0.00 in0.0 mm 0.00 in0.0 mm 0.00 in0.0 mm
04:00 PM 36.7°F2.6°C 24.1°F-4.4°C 60% 1.1 mph NE1.8 kmh NE 7.9 mph12.7 kmh 29.95 in1014.2 mb 0.00 in0.0 mm 0.00 in0.0 mm 0.00 in0.0 mm
04:15 PM 36.0°F2.2°C 23.4°F-4.8°C 60% 6.0 mph NNE9.7 kmh NNE 10.4 mph16.7 kmh 29.92 in1013.2 mb 0.00 in0.0 mm 0.00 in0.0 mm 0.00 in0.0 mm
04:30 PM 35.4°F1.9°C 22.9°F-5.1°C 60% 5.2 mph NE8.4 kmh NE 10.4 mph16.7 kmh 29.95 in1014.2 mb 0.00 in0.0 mm 0.00 in0.0 mm 0.00 in0.0 mm
04:45 PM 35.1°F1.7°C 23.0°F-5.0°C 61% 6.2 mph NE10.0 kmh NE 11.8 mph19.0 kmh 29.95 in1014.2 mb 0.00 in0.0 mm 0.00 in0.0 mm 0.00 in0.0 mm
05:00 PM 34.7°F1.5°C 23.0°F-5.0°C 62% 6.6 mph NE10.6 kmh NE 10.4 mph16.7 kmh 29.95 in1014.2 mb 0.00 in0.0 mm 0.00 in0.0 mm 0.00 in0.0 mm
05:15 PM 34.5°F1.4°C 22.8°F-5.1°C 62% 7.1 mph NE11.4 kmh NE 12.2 mph19.6 kmh 29.95 in1014.2 mb 0.00 in0.0 mm 0.00 in0.0 mm 0.00 in0.0 mm
05:30 PM 34.3°F1.3°C 23.0°F-5.0°C 63% 6.0 mph NE9.7 kmh NE 11.5 mph18.5 kmh 29.95 in1014.2 mb 0.00 in0.0 mm 0.00 in0.0 mm 0.00 in0.0 mm
05:45 PM 34.2°F1.2°C 23.2°F-4.9°C 64% 5.2 mph NE8.4 kmh NE 8.9 mph14.3 kmh 29.95 in1014.2 mb 0.00 in0.0 mm 0.00 in0.0 mm 0.00 in0.0 mm
06:00 PM 33.8°F1.0°C 22.9°F-5.1°C 64% 4.6 mph NE7.4 kmh NE 9.3 mph15.0 kmh 29.95 in1014.2 mb 0.00 in0.0 mm 0.00 in0.0 mm 0.00 in0.0 mm
06:15 PM 33.4°F0.8°C 22.9°F-5.1°C 65% 2.8 mph NE4.5 kmh NE 8.9 mph14.3 kmh 29.98 in1015.2 mb 0.00 in0.0 mm 0.00 in0.0 mm 0.00 in0.0 mm
06:30 PM 33.3°F0.7°C 23.1°F-4.9°C 66% 3.5 mph NE5.6 kmh NE 7.9 mph12.7 kmh 29.98 in1015.2 mb 0.00 in0.0 mm 0.00 in0.0 mm 0.00 in0.0 mm
06:45 PM 32.9°F0.5°C 23.5°F-4.7°C 68% 4.4 mph NE7.1 kmh NE 9.3 mph15.0 kmh 29.98 in1015.2 mb 0.00 in0.0 mm 0.00 in0.0 mm 0.00 in0.0 mm
07:00 PM 32.9°F0.5°C 23.5°F-4.7°C 68% 4.0 mph NE6.4 kmh NE 8.9 mph14.3 kmh 29.98 in1015.2 mb 0.00 in0.0 mm 0.00 in0.0 mm 0.00 in0.0 mm
07:15 PM 32.9°F0.5°C 23.8°F-4.6°C 69% 3.7 mph NE6.0 kmh NE 7.9 mph12.7 kmh 29.98 in1015.2 mb 0.00 in0.0 mm 0.00 in0.0 mm 0.00 in0.0 mm
07:30 PM 32.7°F0.4°C 23.7°F-4.6°C 69% 2.6 mph NNE4.2 kmh NNE 7.2 mph11.6 kmh 29.98 in1015.2 mb 0.00 in0.0 mm 0.00 in0.0 mm 0.00 in0.0 mm
07:45 PM 32.4°F0.2°C 23.3°F-4.8°C 69% 0.8 mph NE1.3 kmh NE 5.7 mph9.2 kmh 29.98 in1015.2 mb 0.00 in0.0 mm 0.00 in0.0 mm 0.00 in0.0 mm
08:00 PM 32.4°F0.2°C 23.7°F-4.6°C 70% 2.4 mph NE3.9 kmh NE 8.6 mph13.8 kmh 29.98 in1015.2 mb 0.00 in0.0 mm 0.00 in0.0 mm 0.00 in0.0 mm
08:15 PM 32.5°F0.3°C 23.8°F-4.6°C 70% 5.6 mph ENE9.0 kmh ENE 11.5 mph18.5 kmh 29.98 in1015.2 mb 0.00 in0.0 mm 0.00 in0.0 mm 0.00 in0.0 mm
08:30 PM 32.7°F0.4°C 24.0°F-4.4°C 70% 5.3 mph NE8.5 kmh NE 12.2 mph19.6 kmh 29.98 in1015.2 mb 0.00 in0.0 mm 0.00 in0.0 mm 0.00 in0.0 mm
08:45 PM 32.5°F0.3°C 23.8°F-4.6°C 70% 5.8 mph ENE9.3 kmh ENE 12.5 mph20.1 kmh 29.98 in1015.2 mb 0.00 in0.0 mm 0.00 in0.0 mm 0.00 in0.0 mm
09:00 PM 32.4°F0.2°C 23.3°F-4.8°C 69% 3.8 mph ENE6.1 kmh ENE 9.3 mph15.0 kmh 29.98 in1015.2 mb 0.00 in0.0 mm 0.00 in0.0 mm 0.00 in0.0 mm
09:15 PM 32.4°F0.2°C 23.7°F-4.6°C 70% 3.7 mph NE6.0 kmh NE 8.9 mph14.3 kmh 29.98 in1015.2 mb 0.00 in0.0 mm 0.00 in0.0 mm 0.00 in0.0 mm
09:30 PM 32.2°F0.1°C 23.1°F-4.9°C 69% 4.8 mph NE7.7 kmh NE 12.9 mph20.8 kmh 29.98 in1015.2 mb 0.00 in0.0 mm 0.00 in0.0 mm 0.00 in0.0 mm
09:45 PM 32.2°F0.1°C 23.1°F-4.9°C 69% 5.7 mph NE9.2 kmh NE 15.0 mph24.1 kmh 29.98 in1015.2 mb 0.00 in0.0 mm 0.00 in0.0 mm 0.00 in0.0 mm
10:00 PM 32.4°F0.2°C 23.7°F-4.6°C 70% 7.4 mph ENE11.9 kmh ENE 17.2 mph27.7 kmh 29.98 in1015.2 mb 0.00 in0.0 mm 0.00 in0.0 mm 0.00 in0.0 mm
10:15 PM 32.2°F0.1°C 23.1°F-4.9°C 69% 6.4 mph NE10.3 kmh NE 12.2 mph19.6 kmh 29.95 in1014.2 mb 0.00 in0.0 mm 0.00 in0.0 mm 0.00 in0.0 mm
10:30 PM 32.0°F0.0°C 23.3°F-4.8°C 70% 6.1 mph ENE9.8 kmh ENE 11.8 mph19.0 kmh 29.98 in1015.2 mb 0.00 in0.0 mm 0.00 in0.0 mm 0.00 in0.0 mm
10:45 PM 32.0°F0.0°C 23.3°F-4.8°C 70% 7.3 mph NE11.7 kmh NE 15.7 mph25.3 kmh 29.98 in1015.2 mb 0.00 in0.0 mm 0.00 in0.0 mm 0.00 in0.0 mm
11:00 PM 32.0°F0.0°C 23.3°F-4.8°C 70% 5.5 mph ENE8.9 kmh ENE 12.5 mph20.1 kmh 29.95 in1014.2 mb 0.00 in0.0 mm 0.00 in0.0 mm 0.00 in0.0 mm
11:15 PM 31.8°F-0.1°C 23.1°F-4.9°C 70% 4.6 mph NE7.4 kmh NE 11.8 mph19.0 kmh 29.98 in1015.2 mb 0.00 in0.0 mm 0.00 in0.0 mm 0.00 in0.0 mm
11:30 PM 31.6°F-0.2°C 23.0°F-5.0°C 70% 4.9 mph ENE7.9 kmh ENE 11.8 mph19.0 kmh 29.98 in1015.2 mb 0.00 in0.0 mm 0.00 in0.0 mm 0.00 in0.0 mm
11:40 PM 31.6°F-0.2°C 23.3°F-4.8°C 71% 8.1 mph E13.0 kmh E 10.0 mph16.1 kmh 29.98 in1015.2 mb 0.00 in0.0 mm 0.00 in0.0 mm 0.00 in0.0 mm
11:45 PM 31.6°F-0.2°C 23.3°F-4.8°C 71% 3.7 mph ENE6.0 kmh ENE 10.0 mph16.1 kmh 29.98 in1015.2 mb 0.00 in0.0 mm 0.00 in0.0 mm 0.00 in0.0 mm